Time;durP1;ratioP1;P1;durP2;ratioP2;P2;SDS_P1;SDS_P2;PMS_P1;PMS_P2;Temp;Humidity;BMP_temperature;BMP_pressure;BME280_temperature;BME280_humidity;BME280_pressure;Samples;Min_cycle;Max_cycle;Signal;HPM_P1;HPM_P2
2023/03/15 00:01:22;;;;;;;;;;;;;;;8.71;69.81;98788.72;5082266;28;19920;-74
2023/03/15 00:03:47;;;;;;;;;;;;;;;8.66;68.43;98796.25;5061177;28;20038;-74
2023/03/15 00:06:13;;;;;;;;;;;;;;;8.52;70.91;98794.94;5081949;28;20011;-74
2023/03/15 00:08:39;;;;;;;;;;;;;;;8.58;68.97;98794.34;5079922;28;19920;-75
2023/03/15 00:11:05;;;;;;;;;;;;;;;8.65;70.56;98784.06;5080517;28;20269;-74
2023/03/15 00:13:30;;;;;;;;;;;;;;;8.67;67.58;98784.72;5080568;28;19926;-74
2023/03/15 00:15:57;;;;;;;;;;;;;;;8.75;66.74;98790.06;5061569;28;20323;-74
2023/03/15 00:18:23;;;;;;;;;;;;;;;8.78;63.46;98789.75;5085788;28;19916;-74
2023/03/15 00:20:48;;;;;;;;;;;;;;;8.87;66.30;98799.41;5080554;28;20292;-75
2023/03/15 00:23:14;;;;;;;;;;;;;;;8.76;69.04;98807.50;5085483;28;19920;-75
2023/03/15 00:25:42;;;;;;;;;;;;;;;8.78;68.40;98813.44;5064222;28;20026;-74
2023/03/15 00:28:07;;;;;;;;;;;;;;;8.70;70.27;98829.16;5084252;28;19927;-75
2023/03/15 00:30:33;;;;;;;;;;;;;;;8.50;72.88;98829.25;5083832;28;20150;-75
2023/03/15 00:32:58;;;;;;;;;;;;;;;8.38;74.16;98819.91;5083389;28;19920;-75
2023/03/15 00:35:24;;;;;;;;;;;;;;;8.35;73.98;98820.22;5084975;28;19927;-75
2023/03/15 00:37:53;;;;;;;;;;;;;;;8.32;74.47;98836.28;5082129;28;19920;-75
2023/03/15 00:40:20;;;;;;;;;;;;;;;8.23;76.20;98839.75;5081442;28;19982;-74
2023/03/15 00:42:50;;;;;;;;;;;;;;;8.18;78.28;98839.38;5084887;28;20391;-74
2023/03/15 00:45:20;;;;;;;;;;;;;;;8.03;80.99;98838.16;5066966;28;19924;-73
2023/03/15 00:47:49;;;;;;;;;;;;;;;8.02;80.63;98834.72;5067805;28;19920;-73
2023/03/15 00:50:15;;;;;;;;;;;;;;;7.94;79.50;98841.66;5066472;28;19928;-74
2023/03/15 00:52:41;;;;;;;;;;;;;;;7.93;78.70;98835.59;5082321;28;19981;-73
2023/03/15 00:55:12;;;;;;;;;;;;;;;7.85;79.69;98842.50;5082706;28;19921;-75
2023/03/15 00:57:39;;;;;;;;;;;;;;;7.80;76.14;98842.94;5082057;28;19927;-74
2023/03/15 01:00:05;;;;;;;;;;;;;;;7.81;73.19;98842.81;5083307;28;19917;-73
2023/03/15 01:02:32;;;;;;;;;;;;;;;7.89;75.06;98841.28;5065194;28;19924;-74
2023/03/15 01:04:57;;;;;;;;;;;;;;;7.96;75.16;98839.72;5082370;28;19927;-74
2023/03/15 01:07:23;;;;;;;;;;;;;;;7.87;73.09;98840.56;5066290;28;19916;-75
2023/03/15 01:09:48;;;;;;;;;;;;;;;7.86;72.51;98833.66;5063490;28;19924;-75
2023/03/15 01:12:14;;;;;;;;;;;;;;;7.76;76.15;98846.84;5084221;28;19920;-74
2023/03/15 01:14:39;;;;;;;;;;;;;;;7.50;80.49;98851.84;5085881;28;20054;-74
2023/03/15 01:17:04;;;;;;;;;;;;;;;7.27;82.93;98859.19;5090938;28;19920;-73
2023/03/15 01:19:30;;;;;;;;;;;;;;;7.35;84.21;98861.13;5086824;28;19924;-74
2023/03/15 01:21:55;;;;;;;;;;;;;;;7.30;84.62;98858.09;5085414;28;19931;-75
2023/03/15 01:24:21;;;;;;;;;;;;;;;7.28;83.89;98866.09;5080901;28;19927;-74
2023/03/15 01:26:48;;;;;;;;;;;;;;;7.34;81.42;98873.44;5080709;28;19921;-74
2023/03/15 01:29:16;;;;;;;;;;;;;;;7.26;80.20;98872.44;5083811;28;20000;-75
2023/03/15 01:31:42;;;;;;;;;;;;;;;7.24;79.60;98871.78;5062836;28;20407;-75
2023/03/15 01:34:08;;;;;;;;;;;;;;;7.23;80.79;98870.13;5064916;28;19924;-75
2023/03/15 01:36:33;;;;;;;;;;;;;;;7.17;79.54;98874.13;5082324;28;20400;-75
2023/03/15 01:38:59;;;;;;;;;;;;;;;7.19;80.15;98871.34;5081908;28;19920;-75
2023/03/15 01:41:30;;;;;;;;;;;;;;;7.29;79.65;98887.94;5063917;28;20340;-74
2023/03/15 01:43:55;;;;;;;;;;;;;;;7.27;78.75;98884.59;5062301;28;20026;-74
2023/03/15 01:46:23;;;;;;;;;;;;;;;7.24;78.96;98875.22;5083135;28;19928;-75
2023/03/15 01:48:58;;;;;;;;;;;;;;;7.19;80.23;98881.81;5061857;28;20441;-75
2023/03/15 01:51:40;;;;;;;;;;;;;;;7.03;81.67;98878.94;5062764;28;20391;-75
2023/03/15 01:54:06;;;;;;;;;;;;;;;6.83;80.14;98875.47;5073560;28;19924;-74
2023/03/15 01:56:34;;;;;;;;;;;;;;;6.65;83.82;98877.91;5063214;28;20375;-74
2023/03/15 01:59:01;;;;;;;;;;;;;;;6.40;85.37;98883.63;5059594;28;20428;-73
2023/03/15 02:01:28;;;;;;;;;;;;;;;6.44;85.84;98882.38;5079981;28;20352;-73
2023/03/15 02:03:56;;;;;;;;;;;;;;;6.44;87.84;98879.78;5078114;28;19924;-74
2023/03/15 02:06:25;;;;;;;;;;;;;;;6.30;89.42;98874.91;5064214;28;20291;-73
2023/03/15 02:08:55;;;;;;;;;;;;;;;6.30;89.40;98882.78;5062117;28;19946;-74
2023/03/15 02:11:23;;;;;;;;;;;;;;;6.39;89.39;98872.31;5064505;28;19920;-73
2023/03/15 02:13:48;;;;;;;;;;;;;;;6.41;89.88;98864.31;5083288;28;20011;-74
2023/03/15 02:16:14;;;;;;;;;;;;;;;6.31;91.80;98873.94;5061570;28;20015;-75
2023/03/15 02:18:50;;;;;;;;;;;;;;;6.30;91.75;98856.56;5061541;28;20211;-74
2023/03/15 02:21:39;;;;;;;;;;;;;;;6.31;91.88;98858.19;5064513;28;19927;-75
2023/03/15 02:24:23;;;;;;;;;;;;;;;6.15;91.47;98863.94;5083930;28;19920;-75
2023/03/15 02:26:53;;;;;;;;;;;;;;;6.07;90.46;98854.13;5061324;28;20007;-75
2023/03/15 02:29:20;;;;;;;;;;;;;;;6.05;91.47;98858.69;5082288;28;19920;-75
2023/03/15 02:31:47;;;;;;;;;;;;;;;5.97;91.54;98861.09;5061240;28;19920;-76
2023/03/15 02:34:12;;;;;;;;;;;;;;;5.92;92.52;98858.06;5083146;28;19969;-75
2023/03/15 02:36:39;;;;;;;;;;;;;;;5.85;92.27;98861.28;5063284;28;19982;-75
2023/03/15 02:39:15;;;;;;;;;;;;;;;5.59;92.89;98861.72;5080886;28;19959;-75
2023/03/15 02:41:43;;;;;;;;;;;;;;;5.68;93.82;98865.31;5081523;28;20068;-73
2023/03/15 02:44:18;;;;;;;;;;;;;;;5.44;94.89;98867.38;5079124;28;19920;-74
2023/03/15 02:46:46;;;;;;;;;;;;;;;5.33;93.61;98861.25;5063569;28;19920;-73
2023/03/15 02:49:12;;;;;;;;;;;;;;;5.37;93.36;98861.81;5081723;28;20340;-73
2023/03/15 02:51:38;;;;;;;;;;;;;;;5.42;92.67;98858.84;5079720;28;20307;-74
2023/03/15 02:54:03;;;;;;;;;;;;;;;5.45;92.96;98863.81;5083647;28;19920;-74
2023/03/15 02:56:32;;;;;;;;;;;;;;;5.42;94.19;98869.31;5080902;28;20255;-74
2023/03/15 02:58:58;;;;;;;;;;;;;;;5.39;95.63;98880.84;5061660;28;20331;-74
2023/03/15 03:01:24;;;;;;;;;;;;;;;5.31;96.50;98885.84;5063394;28;20137;-74
2023/03/15 03:03:49;;;;;;;;;;;;;;;5.33;96.08;98879.56;5060721;28;19921;-74
2023/03/15 03:06:16;;;;;;;;;;;;;;;5.44;95.60;98880.44;5081658;28;19965;-74
2023/03/15 03:08:45;;;;;;;;;;;;;;;5.34;95.06;98878.59;5061140;28;19924;-73
2023/03/15 03:11:13;;;;;;;;;;;;;;;5.50;95.23;98883.41;5063027;28;19928;-73
2023/03/15 03:13:39;;;;;;;;;;;;;;;5.47;96.76;98888.91;5079725;28;20477;-75
2023/03/15 03:16:05;;;;;;;;;;;;;;;5.43;97.72;98884.00;5062368;28;19921;-75
2023/03/15 03:18:34;;;;;;;;;;;;;;;5.50;97.60;98877.31;5084479;28;20057;-73
2023/03/15 03:21:01;;;;;;;;;;;;;;;5.38;99.61;98891.41;5061588;28;19920;-74
2023/03/15 03:23:27;;;;;;;;;;;;;;;5.45;98.59;98884.72;5080931;28;20366;-74
2023/03/15 03:25:53;;;;;;;;;;;;;;;5.38;99.47;98888.81;5078648;28;20012;-74
2023/03/15 03:28:23;;;;;;;;;;;;;;;5.44;98.40;98883.06;5081284;28;20395;-74
2023/03/15 03:30:50;;;;;;;;;;;;;;;5.32;98.66;98880.50;5064092;28;19920;-73
2023/03/15 03:33:15;;;;;;;;;;;;;;;5.21;99.63;98883.19;5059942;28;20449;-73
2023/03/15 03:35:41;;;;;;;;;;;;;;;5.18;99.85;98883.44;5080896;28;20019;-74
2023/03/15 03:38:07;;;;;;;;;;;;;;;5.17;98.72;98888.78;5079725;28;19959;-74
2023/03/15 03:40:37;;;;;;;;;;;;;;;5.18;99.01;98882.59;5080238;28;19924;-74
2023/03/15 03:43:04;;;;;;;;;;;;;;;5.22;98.00;98884.84;5061782;28;20391;-75
2023/03/15 03:45:30;;;;;;;;;;;;;;;5.27;96.55;98890.53;5061085;28;19929;-74
2023/03/15 03:47:57;;;;;;;;;;;;;;;5.29;96.78;98890.41;5080699;28;20497;-75
2023/03/15 03:50:23;;;;;;;;;;;;;;;5.41;96.74;98893.81;5060062;28;20007;-73
2023/03/15 03:52:49;;;;;;;;;;;;;;;5.45;97.34;98892.59;5081637;28;19943;-73
2023/03/15 03:55:23;;;;;;;;;;;;;;;5.39;96.91;98895.69;5060629;28;19920;-74
2023/03/15 03:57:51;;;;;;;;;;;;;;;5.40;98.48;98899.97;5067249;28;19927;-74
2023/03/15 04:00:31;;;;;;;;;;;;;;;5.22;98.98;98925.84;5065140;28;20295;-74
2023/03/15 04:02:57;;;;;;;;;;;;;;;5.09;97.05;98933.88;5083318;28;19920;-73
2023/03/15 04:05:22;;;;;;;;;;;;;;;5.16;98.19;98935.03;5063184;28;19927;-73
2023/03/15 04:07:48;;;;;;;;;;;;;;;5.08;99.96;98934.81;5067343;28;19989;-73
2023/03/15 04:10:15;;;;;;;;;;;;;;;5.12;99.55;98922.34;5063658;28;20388;-73
2023/03/15 04:12:43;;;;;;;;;;;;;;;5.09;100.00;98918.16;5066314;28;19920;-74
2023/03/15 04:15:10;;;;;;;;;;;;;;;5.15;100.00;98925.53;5064325;28;20410;-73
2023/03/15 04:17:37;;;;;;;;;;;;;;;5.21;100.00;98925.03;5067725;28;19924;-73
2023/03/15 04:20:09;;;;;;;;;;;;;;;5.26;100.00;98928.09;5083411;28;20360;-74
2023/03/15 04:22:37;;;;;;;;;;;;;;;5.24;100.00;98930.00;5080966;28;19947;-74
2023/03/15 04:25:19;;;;;;;;;;;;;;;5.24;100.00;98944.88;5081600;28;19921;-73
2023/03/15 04:28:09;;;;;;;;;;;;;;;5.12;100.00;98951.09;5056417;28;19927;-74
2023/03/15 04:30:49;;;;;;;;;;;;;;;5.03;100.00;98952.66;5066934;28;20303;-74
2023/03/15 04:33:34;;;;;;;;;;;;;;;5.06;100.00;98965.50;5066659;28;20459;-74
2023/03/15 04:36:01;;;;;;;;;;;;;;;4.91;100.00;98979.78;5083856;28;19967;-74
2023/03/15 04:38:48;;;;;;;;;;;;;;;5.00;100.00;98979.06;5084691;28;19920;-73
2023/03/15 04:41:27;;;;;;;;;;;;;;;4.93;100.00;98977.88;5091977;28;20395;-75
2023/03/15 04:44:04;;;;;;;;;;;;;;;4.96;99.89;98975.00;5085102;28;19956;-74
2023/03/15 04:46:53;;;;;;;;;;;;;;;4.93;99.65;98973.47;5085827;28;20438;-74
2023/03/15 04:49:27;;;;;;;;;;;;;;;4.95;97.85;98981.19;5081711;28;20272;-74
2023/03/15 04:52:04;;;;;;;;;;;;;;;4.93;96.32;98977.88;5064630;28;19920;-74
2023/03/15 04:54:41;;;;;;;;;;;;;;;4.92;96.69;98992.72;5083681;28;19947;-74
2023/03/15 04:57:27;;;;;;;;;;;;;;;4.86;97.96;98987.16;5084006;28;20264;-74
2023/03/15 05:00:11;;;;;;;;;;;;;;;4.93;97.38;98985.72;5083470;28;19957;-74
2023/03/15 05:03:09;;;;;;;;;;;;;;;4.85;98.79;98993.31;5041653;28;20348;-74
2023/03/15 05:05:40;;;;;;;;;;;;;;;4.93;97.34;98993.56;5083644;28;19927;-73
2023/03/15 05:08:22;;;;;;;;;;;;;;;4.82;97.19;99001.44;5080113;28;20292;-74
2023/03/15 05:11:11;;;;;;;;;;;;;;;4.72;96.82;99003.91;5080523;28;19920;-72
2023/03/15 05:13:55;;;;;;;;;;;;;;;4.75;96.40;99005.47;5081423;28;19927;-74
2023/03/15 05:16:42;;;;;;;;;;;;;;;4.79;96.54;99017.34;5067264;28;19920;-72
2023/03/15 05:19:26;;;;;;;;;;;;;;;4.83;96.58;99014.34;5084797;28;20015;-72
2023/03/15 05:22:14;;;;;;;;;;;;;;;4.86;97.15;99013.28;5075902;28;19924;-73
2023/03/15 05:24:52;;;;;;;;;;;;;;;4.85;99.98;99015.06;5080730;28;19927;-74
2023/03/15 05:27:34;;;;;;;;;;;;;;;4.81;100.00;99026.72;5096973;28;19920;-73
2023/03/15 05:30:18;;;;;;;;;;;;;;;4.80;100.00;99034.69;5080835;28;19922;-75
2023/03/15 05:33:12;;;;;;;;;;;;;;;4.85;100.00;99043.84;5066439;28;19928;-74
2023/03/15 05:36:05;;;;;;;;;;;;;;;4.89;100.00;99049.63;5082596;28;20353;-75
2023/03/15 05:38:56;;;;;;;;;;;;;;;4.87;100.00;99056.78;5052055;28;19996;-74
2023/03/15 05:41:42;;;;;;;;;;;;;;;4.86;100.00;99068.19;5064708;28;21436;-74
2023/03/15 05:44:33;;;;;;;;;;;;;;;4.82;100.00;99065.00;5048385;28;19921;-74
2023/03/15 05:47:19;;;;;;;;;;;;;;;4.85;100.00;99069.13;5080016;28;19920;-74
2023/03/15 05:50:05;;;;;;;;;;;;;;;4.76;100.00;99075.09;5080683;28;19920;-76
2023/03/15 05:53:02;;;;;;;;;;;;;;;4.57;100.00;99080.03;5058034;28;19920;-75
2023/03/15 05:55:37;;;;;;;;;;;;;;;4.52;100.00;99094.31;5063813;28;19935;-74
2023/03/15 05:58:20;;;;;;;;;;;;;;;4.39;100.00;99088.31;5079398;28;19920;-75
2023/03/15 06:01:24;;;;;;;;;;;;;;;4.43;100.00;99083.69;5058101;28;20011;-75
2023/03/15 06:04:15;;;;;;;;;;;;;;;4.27;100.00;99089.25;5081804;28;19924;-75
2023/03/15 06:06:41;;;;;;;;;;;;;;;4.16;100.00;99091.00;5064236;28;20265;-73
2023/03/15 06:09:08;;;;;;;;;;;;;;;4.18;100.00;99095.16;5065717;28;19924;-73
2023/03/15 06:11:34;;;;;;;;;;;;;;;4.32;100.00;99092.34;5062648;28;20404;-73
2023/03/15 06:14:00;;;;;;;;;;;;;;;4.41;100.00;99112.56;5062769;28;19920;-75
2023/03/15 06:16:34;;;;;;;;;;;;;;;4.50;100.00;99111.88;5063219;28;19965;-73
2023/03/15 06:19:02;;;;;;;;;;;;;;;4.61;100.00;99118.06;5063211;28;19928;-72
2023/03/15 06:21:28;;;;;;;;;;;;;;;4.80;100.00;99118.34;5064115;28;20288;-75
2023/03/15 06:23:53;;;;;;;;;;;;;;;4.85;100.00;99122.25;5079784;28;20003;-76
2023/03/15 06:26:21;;;;;;;;;;;;;;;5.01;100.00;99145.44;5082736;28;20271;-75
2023/03/15 06:28:49;;;;;;;;;;;;;;;5.09;100.00;99156.16;5062923;28;19923;-76
2023/03/15 06:31:15;;;;;;;;;;;;;;;5.10;100.00;99164.84;5076129;28;19924;-78
2023/03/15 06:33:49;;;;;;;;;;;;;;;4.89;100.00;99160.28;5063230;28;19931;-78
2023/03/15 06:36:14;;;;;;;;;;;;;;;4.78;100.00;99169.88;5077982;28;20007;-75
2023/03/15 06:38:40;;;;;;;;;;;;;;;4.76;100.00;99158.72;5065040;28;19932;-74
2023/03/15 06:41:07;;;;;;;;;;;;;;;4.76;100.00;99163.97;5081218;28;20029;-75
2023/03/15 06:43:34;;;;;;;;;;;;;;;4.91;100.00;99168.00;5067928;28;19920;-73
2023/03/15 06:46:00;;;;;;;;;;;;;;;5.06;100.00;99177.31;5065404;28;20007;-73
2023/03/15 06:48:26;;;;;;;;;;;;;;;5.22;100.00;99177.81;5061995;28;20018;-73
2023/03/15 06:50:52;;;;;;;;;;;;;;;5.33;100.00;99180.41;5063814;28;20286;-73
2023/03/15 06:53:18;;;;;;;;;;;;;;;5.50;99.71;99192.19;5065459;28;19946;-72
2023/03/15 06:55:44;;;;;;;;;;;;;;;5.70;97.96;99190.63;5082749;28;19960;-73
2023/03/15 06:58:10;;;;;;;;;;;;;;;5.87;96.67;99200.63;5080321;28;19951;-72
2023/03/15 07:00:36;;;;;;;;;;;;;;;6.05;96.16;99195.72;5063075;28;19979;-73
2023/03/15 07:03:01;;;;;;;;;;;;;;;6.27;93.91;99200.06;5081486;28;19920;-73
2023/03/15 07:05:27;;;;;;;;;;;;;;;6.48;92.77;99191.25;5084599;28;19920;-74
2023/03/15 07:07:52;;;;;;;;;;;;;;;6.68;91.54;99202.75;5079508;28;20011;-74
2023/03/15 07:10:18;;;;;;;;;;;;;;;6.81;90.33;99206.03;5080575;28;19931;-77
2023/03/15 07:12:43;;;;;;;;;;;;;;;6.95;87.90;99203.06;5079643;28;19990;-76
2023/03/15 07:15:09;;;;;;;;;;;;;;;7.14;87.33;99204.97;5081517;28;19975;-78
2023/03/15 07:17:34;;;;;;;;;;;;;;;7.31;85.76;99206.16;5080297;28;19951;-77
2023/03/15 07:20:00;;;;;;;;;;;;;;;7.53;81.83;99213.91;5080265;28;19927;-77
2023/03/15 07:22:25;;;;;;;;;;;;;;;7.70;79.58;99221.16;5081194;28;19931;-78
2023/03/15 07:24:51;;;;;;;;;;;;;;;7.91;78.19;99210.56;5078696;28;19921;-77
2023/03/15 07:27:16;;;;;;;;;;;;;;;8.08;73.54;99212.53;5081620;28;20026;-77
2023/03/15 07:29:42;;;;;;;;;;;;;;;8.15;66.66;99223.34;5079317;28;19936;-76
2023/03/15 07:32:07;;;;;;;;;;;;;;;8.34;70.80;99220.78;5084385;28;19928;-76
2023/03/15 07:34:33;;;;;;;;;;;;;;;8.48;71.32;99223.00;5084035;28;19924;-77
2023/03/15 07:36:58;;;;;;;;;;;;;;;8.68;71.12;99223.00;5068828;28;19959;-76
2023/03/15 07:39:25;;;;;;;;;;;;;;;8.82;70.99;99217.34;5082651;28;19920;-77
2023/03/15 07:41:53;;;;;;;;;;;;;;;8.94;61.91;99221.47;5086332;28;19960;-76
2023/03/15 07:44:28;;;;;;;;;;;;;;;9.10;59.06;99237.50;5064446;28;19920;-77
2023/03/15 07:46:54;;;;;;;;;;;;;;;9.27;60.07;99236.78;5086493;28;19927;-77
2023/03/15 07:49:20;;;;;;;;;;;;;;;9.40;55.67;99245.22;5086068;28;19920;-77
2023/03/15 07:51:45;;;;;;;;;;;;;;;9.57;52.65;99245.44;5098845;28;19985;-77
2023/03/15 07:54:11;;;;;;;;;;;;;;;9.74;53.37;99252.56;5085205;28;19993;-77
2023/03/15 07:56:36;;;;;;;;;;;;;;;9.92;53.97;99261.38;5086601;28;19930;-76
2023/03/15 07:59:02;;;;;;;;;;;;;;;10.06;55.70;99263.53;5081984;28;20007;-77
2023/03/15 08:01:27;;;;;;;;;;;;;;;10.18;57.22;99262.41;5087735;28;19916;-78
2023/03/15 08:03:53;;;;;;;;;;;;;;;10.25;59.38;99268.72;5093669;28;20555;-77
2023/03/15 08:06:18;;;;;;;;;;;;;;;10.27;57.26;99272.06;5083187;28;20395;-76
2023/03/15 08:08:43;;;;;;;;;;;;;;;10.33;54.59;99275.91;5085936;28;20309;-76
2023/03/15 08:11:09;;;;;;;;;;;;;;;10.46;53.33;99286.09;5084990;28;19920;-77
2023/03/15 08:13:34;;;;;;;;;;;;;;;10.59;49.69;99287.41;5086172;28;19943;-78
2023/03/15 08:16:00;;;;;;;;;;;;;;;10.73;47.75;99288.69;5092493;28;19920;-77
2023/03/15 08:18:27;;;;;;;;;;;;;;;10.78;44.56;99294.34;5090073;28;19936;-77
2023/03/15 08:20:53;;;;;;;;;;;;;;;10.83;43.98;99289.47;5090984;28;20272;-76
2023/03/15 08:23:18;;;;;;;;;;;;;;;10.91;44.15;99307.16;5087457;28;19920;-78
2023/03/15 08:25:44;;;;;;;;;;;;;;;10.96;42.76;99305.72;5070672;28;19976;-76
2023/03/15 08:28:10;;;;;;;;;;;;;;;11.06;42.37;99301.22;5091112;28;19943;-77
2023/03/15 08:30:36;;;;;;;;;;;;;;;11.11;40.73;99302.56;5093772;28;19931;-77
2023/03/15 08:33:02;;;;;;;;;;;;;;;11.20;41.91;99306.94;5088684;28;19927;-77
2023/03/15 08:35:27;;;;;;;;;;;;;;;11.27;40.08;99298.25;5089435;28;19920;-75
2023/03/15 08:37:54;;;;;;;;;;;;;;;11.36;40.66;99297.34;5089461;28;20018;-77
2023/03/15 08:40:23;;;;;;;;;;;;;;;11.41;40.39;99299.50;5066781;28;20539;-76
2023/03/15 08:42:48;;;;;;;;;;;;;;;11.46;40.79;99302.53;5085646;28;19920;-76
2023/03/15 08:45:14;;;;;;;;;;;;;;;11.52;41.30;99301.91;5090778;28;19932;-77
2023/03/15 08:47:40;;;;;;;;;;;;;;;11.56;39.96;99308.53;5086987;28;19923;-75
2023/03/15 08:50:10;;;;;;;;;;;;;;;11.59;38.91;99315.34;5085536;28;19925;-77
2023/03/15 08:52:35;;;;;;;;;;;;;;;11.56;38.45;99319.09;5078447;28;19920;-76
2023/03/15 08:55:01;;;;;;;;;;;;;;;11.60;39.08;99328.41;5085244;28;19920;-77
2023/03/15 08:57:28;;;;;;;;;;;;;;;11.63;36.99;99317.50;5065880;28;19920;-77
2023/03/15 08:59:54;;;;;;;;;;;;;;;11.65;36.37;99334.03;5064022;28;19944;-76
2023/03/15 09:02:21;;;;;;;;;;;;;;;11.67;35.55;99332.06;5080858;28;19928;-75
2023/03/15 09:04:47;;;;;;;;;;;;;;;11.65;35.06;99339.34;5083862;28;19920;-76
2023/03/15 09:07:14;;;;;;;;;;;;;;;11.65;33.75;99327.94;5081671;28;19920;-75
2023/03/15 09:09:39;;;;;;;;;;;;;;;11.74;33.53;99337.59;5082312;28;19931;-77
2023/03/15 09:12:05;;;;;;;;;;;;;;;11.80;32.60;99340.44;5098060;28;20002;-76
2023/03/15 09:14:30;;;;;;;;;;;;;;;11.78;32.18;99339.75;5080932;28;19929;-75
2023/03/15 09:16:56;;;;;;;;;;;;;;;11.83;32.18;99342.78;5084939;28;19924;-76
2023/03/15 09:19:21;;;;;;;;;;;;;;;11.94;32.76;99340.84;5080743;28;19924;-77
2023/03/15 09:21:47;;;;;;;;;;;;;;;11.99;30.53;99335.94;5081902;28;19962;-77
2023/03/15 09:24:12;;;;;;;;;;;;;;;12.06;31.65;99336.97;5086643;28;19989;-76
2023/03/15 09:26:38;;;;;;;;;;;;;;;12.18;31.88;99335.69;5081757;28;19943;-75
2023/03/15 09:29:03;;;;;;;;;;;;;;;12.25;30.64;99348.13;5082600;28;19927;-77
2023/03/15 09:31:30;;;;;;;;;;;;;;;12.22;30.96;99347.63;5080693;28;19920;-76
2023/03/15 09:33:56;;;;;;;;;;;;;;;12.22;30.10;99352.91;5083026;28;19928;-76
2023/03/15 09:36:21;;;;;;;;;;;;;;;12.14;29.50;99352.84;5079068;28;20337;-75
2023/03/15 09:38:47;;;;;;;;;;;;;;;12.16;30.25;99358.81;5065290;28;20011;-76
2023/03/15 09:41:24;;;;;;;;;;;;;;;12.17;28.29;99371.06;5082697;28;20013;-75
2023/03/15 09:43:52;;;;;;;;;;;;;;;12.11;28.02;99369.06;5087554;28;19920;-76
2023/03/15 09:46:27;;;;;;;;;;;;;;;12.10;27.71;99368.22;5084096;28;19920;-75
2023/03/15 09:49:00;;;;;;;;;;;;;;;12.08;27.82;99358.78;5069227;28;19929;-76
2023/03/15 09:51:29;;;;;;;;;;;;;;;12.17;28.20;99357.84;5080612;28;20019;-76
2023/03/15 09:53:55;;;;;;;;;;;;;;;12.24;28.00;99361.53;5084107;28;20397;-77
2023/03/15 09:56:20;;;;;;;;;;;;;;;12.26;27.39;99359.53;5079304;28;19920;-76
2023/03/15 09:58:47;;;;;;;;;;;;;;;12.31;28.61;99362.56;5082865;28;19924;-75
2023/03/15 10:01:13;;;;;;;;;;;;;;;12.39;28.31;99348.50;5080931;28;20008;-76
2023/03/15 10:03:46;;;;;;;;;;;;;;;12.41;28.30;99362.44;5079982;28;20031;-75
2023/03/15 10:06:16;;;;;;;;;;;;;;;12.43;27.99;99371.84;5078346;28;19931;-77
2023/03/15 10:08:41;;;;;;;;;;;;;;;12.41;27.36;99381.78;5080426;28;20028;-75
2023/03/15 10:11:24;;;;;;;;;;;;;;;12.32;26.40;99396.78;5085784;28;19920;-77
2023/03/15 10:13:53;;;;;;;;;;;;;;;12.24;25.30;99393.28;5083053;28;19927;-76
2023/03/15 10:16:37;;;;;;;;;;;;;;;12.25;26.30;99405.50;5083597;28;19931;-76
2023/03/15 10:19:06;;;;;;;;;;;;;;;12.26;25.21;99401.84;5085296;28;20249;-76
2023/03/15 10:21:34;;;;;;;;;;;;;;;12.32;25.94;99403.88;5082324;28;19989;-77
2023/03/15 10:24:02;;;;;;;;;;;;;;;12.39;26.21;99409.38;5087190;28;19924;-76
2023/03/15 10:26:31;;;;;;;;;;;;;;;12.44;25.94;99402.63;5082766;28;19924;-78
2023/03/15 10:28:57;;;;;;;;;;;;;;;12.55;27.16;99407.63;5078936;28;20419;-78
2023/03/15 10:31:30;;;;;;;;;;;;;;;12.64;27.03;99405.84;5085955;28;20570;-79
2023/03/15 10:33:56;;;;;;;;;;;;;;;12.62;25.81;99403.34;5080787;28;19986;-78
2023/03/15 10:36:22;;;;;;;;;;;;;;;12.60;25.18;99408.00;5080164;28;19920;-77
2023/03/15 10:38:49;;;;;;;;;;;;;;;12.59;25.09;99406.34;5067899;28;19948;-77
2023/03/15 10:41:33;;;;;;;;;;;;;;;12.56;24.87;99417.22;5083924;28;19945;-78
2023/03/15 10:44:04;;;;;;;;;;;;;;;12.57;24.76;99410.97;5064773;28;20339;-78
2023/03/15 10:46:29;;;;;;;;;;;;;;;12.63;25.45;99410.31;5066398;28;19969;-78
2023/03/15 10:48:58;;;;;;;;;;;;;;;12.64;25.69;99422.56;5065014;28;19920;-78
2023/03/15 10:51:28;;;;;;;;;;;;;;;12.67;25.57;99411.66;5083006;28;19984;-79
2023/03/15 10:53:58;;;;;;;;;;;;;;;12.71;26.21;99405.06;5063205;28;19935;-78
2023/03/15 10:56:25;;;;;;;;;;;;;;;12.80;26.81;99405.06;5085899;28;19920;-76
2023/03/15 10:58:52;;;;;;;;;;;;;;;12.77;25.99;99402.78;5086827;28;19991;-79
2023/03/15 11:01:28;;;;;;;;;;;;;;;12.82;26.45;99400.47;5087492;28;20414;-79
2023/03/15 11:04:01;;;;;;;;;;;;;;;12.90;26.86;99400.50;5080712;28;20011;-78
2023/03/15 11:06:27;;;;;;;;;;;;;;;12.94;25.70;99402.66;5081130;28;19925;-77
2023/03/15 11:09:06;;;;;;;;;;;;;;;12.95;25.27;99403.50;5082735;28;19920;-78
2023/03/15 11:11:47;;;;;;;;;;;;;;;12.99;25.01;99399.50;5083461;28;19927;-76
2023/03/15 11:14:13;;;;;;;;;;;;;;;13.06;25.32;99395.22;5064296;28;19921;-78
2023/03/15 11:16:38;;;;;;;;;;;;;;;13.09;25.91;99405.50;5083057;28;19946;-78
2023/03/15 11:19:10;;;;;;;;;;;;;;;13.18;25.85;99409.03;5063427;28;19967;-76
2023/03/15 11:21:37;;;;;;;;;;;;;;;13.20;26.24;99405.22;5081522;28;20436;-78
2023/03/15 11:24:04;;;;;;;;;;;;;;;13.14;24.35;99397.91;5081331;28;19920;-78
2023/03/15 11:26:38;;;;;;;;;;;;;;;13.11;25.51;99396.41;5061377;28;19927;-78
2023/03/15 11:29:23;;;;;;;;;;;;;;;13.13;25.36;99396.28;5082356;28;19920;-78
2023/03/15 11:31:50;;;;;;;;;;;;;;;13.13;24.74;99395.44;5083203;28;19963;-78
2023/03/15 11:34:24;;;;;;;;;;;;;;;13.22;25.72;99394.47;5088183;28;19924;-78
2023/03/15 11:36:53;;;;;;;;;;;;;;;13.32;24.54;99392.47;5096157;28;19920;-78
2023/03/15 11:39:25;;;;;;;;;;;;;;;13.37;24.93;99392.84;5081981;28;19935;-79
2023/03/15 11:41:58;;;;;;;;;;;;;;;13.42;23.64;99390.53;5084957;28;19993;-78
2023/03/15 11:44:36;;;;;;;;;;;;;;;13.48;23.69;99411.91;5084633;28;19920;-78
2023/03/15 11:47:10;;;;;;;;;;;;;;;13.59;23.75;99404.59;5083903;28;19928;-77
2023/03/15 11:49:36;;;;;;;;;;;;;;;13.65;23.27;99396.00;5081342;28;19920;-76
2023/03/15 11:52:01;;;;;;;;;;;;;;;13.70;22.98;99391.84;5081109;28;19924;-76
2023/03/15 11:54:28;;;;;;;;;;;;;;;13.83;23.20;99399.28;5077764;28;20287;-76
2023/03/15 11:56:54;;;;;;;;;;;;;;;13.99;22.75;99393.13;5082541;28;19963;-78
2023/03/15 11:59:36;;;;;;;;;;;;;;;14.18;22.30;99396.25;5078648;28;20317;-77
2023/03/15 12:02:27;;;;;;;;;;;;;;;14.17;21.55;99391.94;5079778;28;20030;-76
2023/03/15 12:04:53;;;;;;;;;;;;;;;14.32;22.28;99384.91;5078646;28;19921;-77
2023/03/15 12:07:18;;;;;;;;;;;;;;;14.46;21.77;99390.56;5082629;28;19927;-77
2023/03/15 12:10:16;;;;;;;;;;;;;;;14.61;21.43;99391.47;5081596;28;20000;-77
2023/03/15 12:12:45;;;;;;;;;;;;;;;14.74;21.43;99373.16;5078060;28;19928;-77
2023/03/15 12:15:14;;;;;;;;;;;;;;;14.86;20.80;99374.44;5080891;28;19956;-77
2023/03/15 12:17:44;;;;;;;;;;;;;;;14.88;21.17;99364.47;5067308;28;19932;-77
2023/03/15 12:20:10;;;;;;;;;;;;;;;14.92;20.97;99360.44;5106138;28;19920;-77
2023/03/15 12:22:39;;;;;;;;;;;;;;;14.95;21.37;99354.81;5088330;28;19924;-77
2023/03/15 12:25:11;;;;;;;;;;;;;;;15.12;22.04;99351.03;5083630;28;19952;-77
2023/03/15 12:27:42;;;;;;;;;;;;;;;15.15;21.32;99355.97;5083362;28;19924;-77
2023/03/15 12:30:17;;;;;;;;;;;;;;;15.16;21.29;99357.63;5080738;28;19953;-76
2023/03/15 12:32:46;;;;;;;;;;;;;;;15.24;21.04;99358.59;5085926;28;19964;-76
2023/03/15 12:35:15;;;;;;;;;;;;;;;15.27;20.54;99342.28;5080232;28;19924;-75
2023/03/15 12:37:45;;;;;;;;;;;;;;;15.30;20.14;99349.91;5094784;28;20078;-74
2023/03/15 12:40:21;;;;;;;;;;;;;;;15.30;19.88;99342.75;5079810;28;19925;-76
2023/03/15 12:42:46;;;;;;;;;;;;;;;15.50;20.32;99340.41;5067033;28;19932;-76
2023/03/15 12:45:15;;;;;;;;;;;;;;;15.68;20.38;99327.66;5078838;28;20346;-78
2023/03/15 12:47:43;;;;;;;;;;;;;;;15.89;20.67;99319.81;5083997;28;19978;-74
2023/03/15 12:50:27;;;;;;;;;;;;;;;15.96;19.69;99320.72;5081903;28;20052;-77
2023/03/15 12:52:57;;;;;;;;;;;;;;;15.83;19.82;99327.69;5084397;28;19924;-78
2023/03/15 12:55:22;;;;;;;;;;;;;;;15.90;20.83;99318.78;5082692;28;19970;-77
2023/03/15 12:57:51;;;;;;;;;;;;;;;15.89;21.14;99321.66;5079103;28;19959;-76
2023/03/15 13:00:19;;;;;;;;;;;;;;;15.95;20.19;99319.09;5079076;28;19924;-76
2023/03/15 13:02:50;;;;;;;;;;;;;;;15.94;19.11;99312.09;5083859;28;19924;-77
2023/03/15 13:05:22;;;;;;;;;;;;;;;15.94;19.35;99319.25;5080358;28;19975;-75